McKeesport, Pennsylvania
Current Conditions -  °F | °C
As of 8:53 AM on Monday 22 Dec 2014 (Local Time) from KAGC Reporting Station
Haze Haze  
Wind Chill: 22°   Ceiling: 4100
Heat Index: 29°   Visibility: 5mi
Dew Point: 22°   Wind: 7mph
Humidity: 75%   Direction: 120°ESE
Pressure: 30.11"   Gusts: NA
Location:  40.35°N, 79.86°W
Report Text: KAGC 221353Z 12006KT 5SM HZ OVC041 M02/M06 A3011 RMK AO2 SLP215 T10171056
Loading
Personal Weather Stations






























Interactive Weather Map New forecast layout! Learn more

10-Day Weather Forecast

Advertisements
Track Severe Weather on mobile